createdAt,value
2019-02-20T00:01:29.855Z,10.60
2019-02-20T00:04:10.399Z,10.80
2019-02-20T00:06:50.649Z,11.38
2019-02-20T00:09:30.460Z,9.95
2019-02-20T00:12:10.715Z,11.57
2019-02-20T00:14:50.746Z,10.63
2019-02-20T00:17:31.038Z,11.63
2019-02-20T00:20:11.441Z,11.30
2019-02-20T00:22:51.534Z,8.35
2019-02-20T00:25:31.404Z,13.70
2019-02-20T00:28:11.494Z,12.98
2019-02-20T00:30:51.585Z,11.78
2019-02-20T00:33:31.613Z,13.70
2019-02-20T00:36:11.555Z,12.40
2019-02-20T00:38:51.854Z,12.78
2019-02-20T00:41:31.939Z,12.15
2019-02-20T00:50:33.307Z,13.43
2019-02-20T00:56:27.249Z,13.90
2019-02-20T00:59:07.500Z,14.45
2019-02-20T01:01:47.375Z,12.65
2019-02-20T01:04:27.506Z,15.10
2019-02-20T01:07:07.303Z,14.80
2019-02-20T01:09:47.671Z,14.58
2019-02-20T01:12:27.958Z,16.95
2019-02-20T01:15:07.789Z,15.10
2019-02-20T01:17:48.308Z,15.48
2019-02-20T01:20:28.409Z,15.18
2019-02-20T01:23:08.236Z,15.85
2019-02-20T01:25:48.309Z,16.97
2019-02-20T01:28:28.944Z,18.40
2019-02-20T01:31:09.137Z,16.52
2019-02-20T01:33:49.171Z,14.68
2019-02-20T01:36:29.324Z,15.78
2019-02-20T01:39:09.332Z,16.32
2019-02-20T01:41:48.817Z,15.88
2019-02-20T01:44:28.644Z,16.45
2019-02-20T01:47:08.748Z,15.95
2019-02-20T01:49:48.287Z,16.77
2019-02-20T01:52:28.418Z,15.20
2019-02-20T01:55:08.480Z,16.93
2019-02-20T01:57:48.409Z,19.52
2019-02-20T02:00:28.443Z,16.37
2019-02-20T02:03:09.300Z,17.65
2019-02-20T02:05:49.837Z,16.15
2019-02-20T02:08:29.500Z,16.17
2019-02-20T02:11:09.836Z,16.25
2019-02-20T02:13:49.819Z,14.33
2019-02-20T02:16:29.808Z,14.43
2019-02-20T02:19:10.128Z,16.27
2019-02-20T02:21:51.354Z,18.52
2019-02-20T02:24:31.162Z,18.70
2019-02-20T02:29:51.658Z,18.25
2019-02-20T02:32:32.436Z,17.75
2019-02-20T02:35:12.229Z,19.00
2019-02-20T02:37:52.524Z,18.62
2019-02-20T02:40:32.338Z,17.45
2019-02-20T02:43:12.388Z,19.10
2019-02-20T02:45:52.331Z,18.40
2019-02-20T02:48:32.427Z,17.52
2019-02-20T02:51:12.068Z,17.42
2019-02-20T02:53:52.452Z,17.37
2019-02-20T02:56:32.595Z,18.32
2019-02-20T02:59:12.529Z,18.60
2019-02-20T03:01:52.191Z,18.35
2019-02-20T03:04:32.714Z,16.45
2019-02-20T03:09:51.916Z,19.05
2019-02-20T03:12:32.062Z,19.00
2019-02-20T03:15:11.648Z,18.57
2019-02-20T03:17:51.954Z,19.45
2019-02-20T03:20:31.715Z,20.20
2019-02-20T03:23:12.097Z,19.87
2019-02-20T03:25:52.064Z,17.85
2019-02-20T03:28:31.833Z,20.12
2019-02-20T03:31:11.961Z,18.70
2019-02-20T03:33:51.890Z,18.30
2019-02-20T03:36:32.098Z,17.52
2019-02-20T03:39:11.633Z,18.90
2019-02-20T03:41:51.553Z,19.07
2019-02-20T03:44:31.416Z,20.35
2019-02-20T03:47:11.837Z,20.50
2019-02-20T03:49:51.389Z,21.23
2019-02-20T03:52:30.697Z,22.98
2019-02-20T03:55:11.093Z,22.42
2019-02-20T03:57:51.311Z,20.68
2019-02-20T04:00:31.215Z,20.43
2019-02-20T04:03:09.203Z,20.15
2019-02-20T04:05:55.845Z,20.97
2019-02-20T04:08:35.561Z,21.75
2019-02-20T04:11:15.736Z,22.30
2019-02-20T04:13:55.958Z,18.12
2019-02-20T04:16:35.924Z,21.33
2019-02-20T04:19:16.119Z,21.17
2019-02-20T04:21:55.971Z,18.67
2019-02-20T04:24:36.457Z,19.52
2019-02-20T04:27:16.219Z,21.60
2019-02-20T04:29:56.432Z,24.70
2019-02-20T04:32:36.573Z,21.95
2019-02-20T04:35:16.620Z,22.42
2019-02-20T04:37:56.695Z,23.35
2019-02-20T04:40:37.465Z,22.95
2019-02-20T04:43:17.780Z,25.32
2019-02-20T04:45:57.834Z,24.32
2019-02-20T04:48:37.840Z,24.35
2019-02-20T04:51:17.963Z,24.20
2019-02-20T04:54:01.371Z,25.50
2019-02-20T04:56:29.225Z,26.45
2019-02-20T04:58:59.283Z,26.27
2019-02-20T05:01:26.667Z,26.33
2019-02-20T05:04:13.240Z,25.68
2019-02-20T05:06:52.739Z,24.85
2019-02-20T05:09:32.738Z,25.68
2019-02-20T05:12:12.776Z,27.27
2019-02-20T05:14:52.878Z,28.25
2019-02-20T05:17:33.007Z,29.20
2019-02-20T05:20:13.531Z,30.40
2019-02-20T05:22:53.419Z,28.73
2019-02-20T05:25:33.447Z,30.95
2019-02-20T05:28:13.415Z,32.25
2019-02-20T05:30:52.997Z,31.37
2019-02-20T05:33:33.312Z,31.02
2019-02-20T05:36:13.048Z,27.58
2019-02-20T05:38:53.716Z,28.62
2019-02-20T05:41:33.386Z,28.12
2019-02-20T05:44:13.235Z,26.82
2019-02-20T05:46:55.809Z,23.40
2019-02-20T05:49:36.169Z,24.90
2019-02-20T05:52:15.885Z,27.67
2019-02-20T05:54:55.816Z,27.85
2019-02-20T05:57:36.523Z,27.70
2019-02-20T06:00:16.146Z,29.63
2019-02-20T06:02:55.907Z,29.77
2019-02-20T06:05:36.198Z,31.20
2019-02-20T06:08:16.927Z,33.02
2019-02-20T06:10:57.086Z,31.55
2019-02-20T06:13:36.963Z,31.40
2019-02-20T06:16:17.157Z,31.27
2019-02-20T06:18:57.107Z,31.70
2019-02-20T06:24:17.066Z,30.55
2019-02-20T06:26:56.908Z,31.85
2019-02-20T06:29:36.720Z,29.63
2019-02-20T06:32:16.565Z,29.85
2019-02-20T06:34:56.771Z,30.72
2019-02-20T06:37:36.680Z,29.25
2019-02-20T06:40:16.558Z,31.62
2019-02-20T06:42:56.767Z,30.90
2019-02-20T06:45:37.290Z,28.10
2019-02-20T06:48:17.260Z,32.30
2019-02-20T06:51:00.602Z,31.42
2019-02-20T06:53:40.964Z,32.08
2019-02-20T06:56:21.120Z,30.23
2019-02-20T06:59:00.976Z,39.78
2019-02-20T07:01:41.130Z,32.50
2019-02-20T07:04:20.699Z,34.20
2019-02-20T07:07:00.857Z,35.05
2019-02-20T07:09:40.800Z,35.90
2019-02-20T07:12:20.677Z,35.60
2019-02-20T07:15:01.213Z,35.33
2019-02-20T07:17:41.768Z,33.10
2019-02-20T07:20:21.628Z,35.38
2019-02-20T07:23:01.604Z,33.15
2019-02-20T07:25:41.903Z,32.23
2019-02-20T07:28:21.621Z,33.70
2019-02-20T07:31:01.308Z,34.25
2019-02-20T07:33:41.413Z,33.92
2019-02-20T07:36:20.942Z,32.00
2019-02-20T07:39:01.265Z,32.45
2019-02-20T07:41:43.028Z,31.55
2019-02-20T07:44:23.255Z,31.95
2019-02-20T07:47:02.953Z,32.30
2019-02-20T07:49:43.123Z,33.23
2019-02-20T07:52:23.270Z,32.80
2019-02-20T07:55:12.543Z,30.52
2019-02-20T07:57:45.252Z,31.87
2019-02-20T08:00:25.310Z,32.70
2019-02-20T08:03:05.281Z,33.08
2019-02-20T08:05:45.256Z,33.65
2019-02-20T08:08:24.546Z,35.38
2019-02-20T08:11:04.563Z,36.33
2019-02-20T08:13:44.785Z,33.80
2019-02-20T08:16:24.592Z,34.53
2019-02-20T08:19:04.905Z,57.62
2019-02-20T08:21:44.759Z,39.10
2019-02-20T08:24:24.733Z,44.53
2019-02-20T08:27:04.057Z,32.70
2019-02-20T08:29:44.095Z,29.77
2019-02-20T08:32:24.377Z,33.17
2019-02-20T08:35:04.683Z,32.55
2019-02-20T08:37:44.415Z,30.17
2019-02-20T08:40:24.429Z,28.33
2019-02-20T08:43:04.253Z,26.17
2019-02-20T08:45:44.031Z,25.57
2019-02-20T08:48:23.878Z,23.43
2019-02-20T08:51:04.207Z,24.10
2019-02-20T08:53:45.097Z,24.73
2019-02-20T08:56:25.041Z,23.80
2019-02-20T08:59:05.356Z,25.40
2019-02-20T09:01:45.318Z,24.27
2019-02-20T09:04:25.105Z,24.37
2019-02-20T09:07:05.083Z,22.47
2019-02-20T09:09:45.367Z,21.27
2019-02-20T09:12:25.672Z,21.80
2019-02-20T09:15:06.060Z,22.20
2019-02-20T09:17:45.584Z,20.87
2019-02-20T09:20:25.857Z,23.63
2019-02-20T09:23:06.872Z,22.87
2019-02-20T09:25:46.846Z,20.07
2019-02-20T09:28:26.724Z,24.27
2019-02-20T09:31:06.657Z,21.90
2019-02-20T09:33:51.050Z,21.40
2019-02-20T09:36:31.414Z,21.93
2019-02-20T09:39:11.209Z,21.57
2019-02-20T09:41:51.258Z,21.00
2019-02-20T09:44:31.191Z,22.00
2019-02-20T09:47:12.734Z,21.57
2019-02-20T09:49:52.673Z,24.13
2019-02-20T09:52:32.256Z,20.60
2019-02-20T09:55:12.289Z,40.57
2019-02-20T09:57:53.065Z,23.10
2019-02-20T10:00:32.777Z,20.63
2019-02-20T10:03:12.765Z,19.47
2019-02-20T10:05:52.496Z,16.87
2019-02-20T10:08:32.809Z,19.37
2019-02-20T10:11:12.959Z,18.37
2019-02-20T10:13:52.915Z,18.47
2019-02-20T10:16:32.747Z,17.83
2019-02-20T10:19:12.853Z,17.23
2019-02-20T10:21:52.676Z,22.10
2019-02-20T10:24:32.081Z,20.33
2019-02-20T10:27:12.327Z,20.23
2019-02-20T10:29:52.352Z,19.77
2019-02-20T10:32:33.600Z,19.63
2019-02-20T10:35:13.826Z,19.23
2019-02-20T10:40:34.890Z,18.30
2019-02-20T10:43:16.249Z,18.60
2019-02-20T10:45:56.197Z,17.40
2019-02-20T10:48:36.211Z,19.27
2019-02-20T10:51:16.128Z,19.30
2019-02-20T10:53:55.906Z,16.87
2019-02-20T10:56:36.238Z,17.50
2019-02-20T10:59:16.007Z,18.13
2019-02-20T11:01:56.125Z,16.13
2019-02-20T11:04:36.080Z,17.60
2019-02-20T11:07:17.227Z,16.17
2019-02-20T11:12:38.910Z,18.00
2019-02-20T11:15:18.759Z,18.40
2019-02-20T11:17:58.875Z,15.67
2019-02-20T11:20:38.705Z,15.07
2019-02-20T11:23:16.852Z,14.60
2019-02-20T11:26:04.837Z,15.40
2019-02-20T11:28:51.579Z,13.13
2019-02-20T11:31:31.684Z,14.47
2019-02-20T11:34:11.864Z,18.30
2019-02-20T11:36:52.004Z,15.20
2019-02-20T11:39:37.700Z,15.20
2019-02-20T11:42:14.451Z,15.93
2019-02-20T11:44:54.191Z,16.80
2019-02-20T11:47:34.598Z,13.50
2019-02-20T11:50:14.297Z,13.50
2019-02-20T11:52:54.694Z,14.00
2019-02-20T11:55:34.561Z,11.90
2019-02-20T11:58:14.956Z,13.70
2019-02-20T12:00:54.710Z,13.03
2019-02-20T12:03:34.669Z,11.87
2019-02-20T12:06:14.689Z,12.87
2019-02-20T12:08:55.684Z,13.67
2019-02-20T12:11:36.118Z,14.07
2019-02-20T12:14:15.879Z,14.97
2019-02-20T12:16:56.028Z,12.90
2019-02-20T12:19:36.261Z,14.00
2019-02-20T12:22:16.097Z,13.90
2019-02-20T12:24:56.040Z,13.00
2019-02-20T12:27:36.032Z,13.83
2019-02-20T12:30:16.251Z,11.53
2019-02-20T12:32:56.052Z,12.57
2019-02-20T12:35:36.149Z,13.20
2019-02-20T12:38:16.133Z,16.47
2019-02-20T12:40:56.176Z,14.13
2019-02-20T12:43:36.180Z,14.97
2019-02-20T12:46:15.833Z,14.70
2019-02-20T12:48:55.619Z,11.93
2019-02-20T12:51:36.134Z,13.80
2019-02-20T12:54:18.160Z,14.23
2019-02-20T12:56:57.960Z,13.73
2019-02-20T12:59:38.145Z,15.07
2019-02-20T13:02:18.614Z,12.27
2019-02-20T13:04:59.353Z,12.63
2019-02-20T13:07:39.511Z,13.20
2019-02-20T13:10:19.520Z,12.63
2019-02-20T13:12:59.555Z,9.60
2019-02-20T13:15:39.521Z,10.40
2019-02-20T13:18:19.688Z,10.97
2019-02-20T13:20:59.834Z,8.67
2019-02-20T13:23:40.211Z,10.27
2019-02-20T13:26:20.213Z,10.77
2019-02-20T13:29:00.821Z,9.50
2019-02-20T13:31:40.942Z,10.00
2019-02-20T13:34:20.737Z,10.50
2019-02-20T13:37:00.917Z,10.10
2019-02-20T13:39:41.186Z,10.60
2019-02-20T13:42:21.275Z,11.43
2019-02-20T13:45:00.989Z,11.07
2019-02-20T13:47:41.238Z,13.73
2019-02-20T13:50:20.987Z,10.80
2019-02-20T13:53:00.879Z,11.33
2019-02-20T13:55:40.723Z,10.87
2019-02-20T13:58:21.477Z,10.67
2019-02-20T14:01:01.120Z,13.37
2019-02-20T14:03:41.168Z,12.20
2019-02-20T14:06:21.148Z,12.70
2019-02-20T14:09:01.268Z,11.60
2019-02-20T14:11:43.946Z,11.80
2019-02-20T14:14:23.911Z,12.10
2019-02-20T14:17:06.302Z,10.47
2019-02-20T14:19:45.817Z,11.50
2019-02-20T14:22:26.428Z,12.47
2019-02-20T14:25:07.119Z,12.67
2019-02-20T14:27:47.389Z,12.80
2019-02-20T14:30:27.678Z,12.10
2019-02-20T14:33:07.445Z,11.03
2019-02-20T14:35:47.382Z,13.20
2019-02-20T14:38:27.152Z,12.30
2019-02-20T14:41:07.196Z,11.97
2019-02-20T14:43:47.518Z,12.70
2019-02-20T14:46:27.695Z,12.17
2019-02-20T14:49:09.401Z,16.23
2019-02-20T14:51:49.152Z,11.47
2019-02-20T14:54:30.370Z,12.43
2019-02-20T14:57:19.207Z,12.20
2019-02-20T14:59:52.374Z,12.30
2019-02-20T15:02:32.278Z,11.20
2019-02-20T15:05:12.555Z,10.53
2019-02-20T15:07:53.465Z,10.90
2019-02-20T15:10:33.074Z,12.27
2019-02-20T15:13:13.408Z,11.10
2019-02-20T15:15:53.036Z,10.43
2019-02-20T15:18:33.785Z,10.63
2019-02-20T15:21:13.662Z,11.93
2019-02-20T15:23:54.072Z,10.47
2019-02-20T15:26:34.249Z,11.07
2019-02-20T15:29:14.594Z,10.70
2019-02-20T15:31:54.292Z,11.13
2019-02-20T15:34:35.304Z,10.70
2019-02-20T15:37:14.685Z,10.20
2019-02-20T15:39:56.272Z,10.23
2019-02-20T15:42:36.131Z,10.20
2019-02-20T15:45:17.170Z,8.80
2019-02-20T15:47:57.160Z,19.70
2019-02-20T15:53:18.077Z,9.40
2019-02-20T15:55:58.085Z,9.60
2019-02-20T15:58:37.995Z,10.67
2019-02-20T16:03:59.259Z,9.60
2019-02-20T16:06:39.070Z,9.37
2019-02-20T16:09:19.193Z,10.30
2019-02-20T16:11:59.228Z,10.13
2019-02-20T16:14:39.675Z,9.13
2019-02-20T16:17:19.248Z,10.10
2019-02-20T16:19:59.391Z,9.50
2019-02-20T16:22:39.400Z,10.30
2019-02-20T16:25:19.596Z,9.80
2019-02-20T16:27:59.401Z,9.20
2019-02-20T16:30:40.630Z,9.00
2019-02-20T16:33:20.696Z,9.60
2019-02-20T16:36:00.496Z,8.73
2019-02-20T16:38:40.826Z,9.77
2019-02-20T16:41:20.770Z,8.20
2019-02-20T16:44:00.935Z,7.60
2019-02-20T16:46:40.876Z,7.97
2019-02-20T16:49:21.465Z,9.53
2019-02-20T16:52:02.002Z,8.30
2019-02-20T16:54:42.007Z,8.17
2019-02-20T16:57:21.471Z,9.30
2019-02-20T17:00:01.418Z,8.87
2019-02-20T17:02:42.675Z,10.07
2019-02-20T17:05:22.529Z,8.90
2019-02-20T17:08:03.219Z,10.10
2019-02-20T17:10:43.077Z,8.73
2019-02-20T17:13:24.082Z,8.40
2019-02-20T17:16:04.446Z,7.80
2019-02-20T17:18:44.571Z,7.80
2019-02-20T17:21:26.275Z,10.80
2019-02-20T17:23:53.652Z,8.80
2019-02-20T17:26:40.489Z,12.27
2019-02-20T17:29:20.525Z,9.60
2019-02-20T17:32:00.403Z,9.10
2019-02-20T17:34:40.216Z,7.83
2019-02-20T17:37:20.244Z,8.20
2019-02-20T17:40:00.276Z,8.93
2019-02-20T17:42:40.526Z,8.30
2019-02-20T17:45:21.269Z,7.93
2019-02-20T17:48:01.747Z,7.70
2019-02-20T17:50:41.352Z,7.33
2019-02-20T17:53:21.390Z,7.43
2019-02-20T17:56:01.536Z,8.10
2019-02-20T17:58:42.718Z,8.20
2019-02-20T18:01:22.959Z,7.20
2019-02-20T18:04:03.003Z,7.17
2019-02-20T18:06:42.709Z,7.20
2019-02-20T18:09:22.880Z,8.27
2019-02-20T18:12:02.861Z,9.57
2019-02-20T18:14:43.692Z,10.20
2019-02-20T18:17:23.681Z,9.23
2019-02-20T18:20:04.467Z,8.93
2019-02-20T18:22:44.417Z,9.93
2019-02-20T18:25:24.528Z,9.77
2019-02-20T18:28:06.368Z,8.43
2019-02-20T18:30:49.220Z,10.47
2019-02-20T18:36:11.543Z,9.97
2019-02-20T18:38:51.302Z,9.30
2019-02-20T18:41:31.420Z,9.77
2019-02-20T18:44:12.329Z,11.20
2019-02-20T18:46:52.467Z,11.43
2019-02-20T18:49:32.456Z,10.93
2019-02-20T18:52:12.280Z,10.63
2019-02-20T18:54:52.812Z,9.63
2019-02-20T18:57:32.577Z,10.20
2019-02-20T19:00:12.457Z,9.20
2019-02-20T19:02:40.053Z,10.23
2019-02-20T19:05:27.042Z,10.50
2019-02-20T19:08:08.882Z,10.70
2019-02-20T19:10:50.980Z,12.30
2019-02-20T19:13:31.061Z,9.97
2019-02-20T19:16:11.107Z,10.17
2019-02-20T19:18:50.884Z,10.10
2019-02-20T19:21:31.702Z,9.17
2019-02-20T19:24:11.563Z,11.60
2019-02-20T19:27:19.812Z,9.97
2019-02-20T19:30:26.402Z,9.80
2019-02-20T19:33:06.095Z,11.83
2019-02-20T19:35:45.685Z,10.57
2019-02-20T19:38:26.738Z,10.60
2019-02-20T19:41:06.955Z,11.20
2019-02-20T19:43:46.921Z,10.60
2019-02-20T19:46:27.180Z,10.20
2019-02-20T19:49:06.847Z,11.93
2019-02-20T19:51:48.209Z,10.67
2019-02-20T19:54:29.429Z,10.17
2019-02-20T19:57:36.743Z,11.60
2019-02-20T20:00:43.316Z,12.00
2019-02-20T20:03:23.452Z,9.30
2019-02-20T20:06:03.740Z,10.33
2019-02-20T20:08:44.604Z,10.43
2019-02-20T20:11:24.815Z,9.97
2019-02-20T20:14:04.602Z,9.80
2019-02-20T20:16:44.474Z,10.63
2019-02-20T20:19:24.320Z,11.03
2019-02-20T20:22:04.592Z,10.80
2019-02-20T20:24:44.368Z,10.15
2019-02-20T20:27:24.648Z,10.70
2019-02-20T20:30:04.513Z,13.20
2019-02-20T20:32:53.842Z,13.40
2019-02-20T20:35:28.230Z,21.40
2019-02-20T20:38:08.307Z,19.15
2019-02-20T20:40:48.306Z,13.57
2019-02-20T20:43:28.345Z,19.73
2019-02-20T20:46:08.158Z,10.32
2019-02-20T20:48:48.009Z,9.83
2019-02-20T20:51:29.129Z,11.55
2019-02-20T20:54:09.167Z,9.40
2019-02-20T20:56:57.262Z,11.10
2019-02-20T20:59:30.906Z,9.85
2019-02-20T21:02:11.199Z,12.10
2019-02-20T21:04:51.146Z,11.00
2019-02-20T21:07:31.158Z,11.78
2019-02-20T21:10:11.855Z,10.10
2019-02-20T21:12:53.568Z,11.95
2019-02-20T21:15:33.194Z,12.73
2019-02-20T21:18:13.663Z,11.90
2019-02-20T21:20:53.576Z,11.03
2019-02-20T21:23:33.909Z,10.85
2019-02-20T21:26:13.866Z,9.63
2019-02-20T21:28:54.236Z,10.15
2019-02-20T21:31:33.894Z,10.05
2019-02-20T21:34:13.996Z,8.83
2019-02-20T21:36:53.781Z,9.15
2019-02-20T21:39:33.682Z,9.90
2019-02-20T21:42:13.745Z,10.32
2019-02-20T21:44:53.855Z,10.70
2019-02-20T21:47:33.589Z,11.15
2019-02-20T21:50:13.475Z,10.35
2019-02-20T21:53:17.045Z,10.90
2019-02-20T21:56:23.633Z,10.03
2019-02-20T21:59:04.251Z,10.82
2019-02-20T22:01:47.373Z,10.35
2019-02-20T22:04:27.252Z,12.28
2019-02-20T22:07:07.566Z,11.30
2019-02-20T22:09:57.678Z,9.65
2019-02-20T22:12:51.232Z,10.15
2019-02-20T22:16:00.932Z,9.88
2019-02-20T22:18:41.172Z,11.10
2019-02-20T22:21:20.992Z,11.28
2019-02-20T22:24:00.847Z,11.00
2019-02-20T22:26:40.679Z,11.60
2019-02-20T22:29:20.816Z,11.00
2019-02-20T22:32:01.612Z,10.10
2019-02-20T22:34:42.474Z,10.15
2019-02-20T22:37:22.730Z,10.30
2019-02-20T22:40:02.492Z,11.60
2019-02-20T22:42:42.984Z,11.20
2019-02-20T22:45:22.659Z,11.15
2019-02-20T22:48:02.997Z,12.82
2019-02-20T22:50:43.180Z,10.38
2019-02-20T22:53:51.145Z,12.20
2019-02-20T22:56:57.388Z,13.50
2019-02-20T22:59:37.713Z,10.85
2019-02-20T23:02:17.694Z,13.30
2019-02-20T23:04:57.938Z,11.40
2019-02-20T23:07:37.873Z,11.30
2019-02-20T23:10:18.294Z,11.60
2019-02-20T23:12:58.092Z,10.88
2019-02-20T23:15:38.920Z,11.22
2019-02-20T23:18:18.330Z,12.85
2019-02-20T23:20:58.614Z,15.10
2019-02-20T23:23:39.158Z,14.75
2019-02-20T23:26:17.055Z,16.10
2019-02-20T23:29:03.774Z,14.10
2019-02-20T23:31:44.157Z,15.70
2019-02-20T23:34:23.767Z,15.10
2019-02-20T23:37:04.798Z,14.73
2019-02-20T23:39:45.961Z,13.13
2019-02-20T23:42:27.003Z,10.25
2019-02-20T23:45:07.430Z,11.45
2019-02-20T23:47:47.244Z,11.65
2019-02-20T23:50:27.567Z,12.75
2019-02-20T23:53:08.639Z,13.50
2019-02-20T23:55:48.321Z,14.45
2019-02-20T23:58:28.580Z,15.58
